createdAt,value
2023-04-09T00:00:48.744Z,4.87
2023-04-09T00:01:48.746Z,4.89
2023-04-09T00:02:48.835Z,4.89
2023-04-09T00:03:48.856Z,4.89
2023-04-09T00:04:48.807Z,4.90
2023-04-09T00:05:48.833Z,4.92
2023-04-09T00:06:48.832Z,4.92
2023-04-09T00:07:48.852Z,4.90
2023-04-09T00:08:48.963Z,4.90
2023-04-09T00:09:48.890Z,4.90
2023-04-09T00:10:48.926Z,4.92
2023-04-09T00:11:48.924Z,4.92
2023-04-09T00:12:48.935Z,4.93
2023-04-09T00:13:48.971Z,4.94
2023-04-09T00:14:48.968Z,4.89
2023-04-09T00:15:49.010Z,4.86
2023-04-09T00:16:49.006Z,4.89
2023-04-09T00:17:49.151Z,4.90
2023-04-09T00:18:49.454Z,4.94
2023-04-09T00:19:49.048Z,4.96
2023-04-09T00:20:49.086Z,4.96
2023-04-09T00:21:49.083Z,4.97
2023-04-09T00:22:49.098Z,4.99
2023-04-09T00:23:49.130Z,5.00
2023-04-09T00:24:49.135Z,5.02
2023-04-09T00:25:49.176Z,5.05
2023-04-09T00:26:49.186Z,5.05
2023-04-09T00:27:49.198Z,5.08
2023-04-09T00:28:49.374Z,5.10
2023-04-09T00:29:49.221Z,5.08
2023-04-09T00:30:49.261Z,5.11
2023-04-09T00:31:49.273Z,5.08
2023-04-09T00:32:49.303Z,5.07
2023-04-09T00:33:49.287Z,5.05
2023-04-09T00:34:49.339Z,5.00
2023-04-09T00:35:49.341Z,4.96
2023-04-09T00:36:49.356Z,4.94
2023-04-09T00:37:49.354Z,4.93
2023-04-09T00:38:49.554Z,4.90
2023-04-09T00:39:49.418Z,4.87
2023-04-09T00:40:49.415Z,4.89
2023-04-09T00:41:49.431Z,4.86
2023-04-09T00:42:49.448Z,4.80
2023-04-09T00:43:49.466Z,4.77
2023-04-09T00:44:49.515Z,4.78
2023-04-09T00:45:49.526Z,4.78
2023-04-09T00:46:49.535Z,4.80
2023-04-09T00:47:49.590Z,4.82
2023-04-09T00:48:49.675Z,4.80
2023-04-09T00:49:49.603Z,4.82
2023-04-09T00:50:49.598Z,4.82
2023-04-09T00:51:49.641Z,4.87
2023-04-09T00:52:49.667Z,4.89
2023-04-09T00:53:49.652Z,4.86
2023-04-09T00:54:49.714Z,4.82
2023-04-09T00:55:49.687Z,4.78
2023-04-09T00:56:49.725Z,4.77
2023-04-09T00:57:49.719Z,4.75
2023-04-09T00:58:49.948Z,4.73
2023-04-09T00:59:49.790Z,4.73
2023-04-09T01:00:49.803Z,4.71
2023-04-09T01:01:49.808Z,4.73
2023-04-09T01:02:49.932Z,4.73
2023-04-09T01:03:49.907Z,4.71
2023-04-09T01:04:49.877Z,4.67
2023-04-09T01:05:49.883Z,4.62
2023-04-09T01:06:49.898Z,4.59
2023-04-09T01:07:49.904Z,4.59
2023-04-09T01:08:50.329Z,4.60
2023-04-09T01:09:49.967Z,4.63
2023-04-09T01:10:49.949Z,4.66
2023-04-09T01:11:49.969Z,4.66
2023-04-09T01:12:49.993Z,4.67
2023-04-09T01:13:50.011Z,4.70
2023-04-09T01:14:50.080Z,4.71
2023-04-09T01:15:50.041Z,4.73
2023-04-09T01:16:50.206Z,4.74
2023-04-09T01:17:50.103Z,4.75
2023-04-09T01:18:50.430Z,4.77
2023-04-09T01:19:50.153Z,4.78
2023-04-09T01:20:50.125Z,4.80
2023-04-09T01:21:50.140Z,4.80
2023-04-09T01:22:50.158Z,4.77
2023-04-09T01:23:50.175Z,4.75
2023-04-09T01:24:50.220Z,4.75
2023-04-09T01:25:50.206Z,4.74
2023-04-09T01:26:50.226Z,4.74
2023-04-09T01:27:50.243Z,4.75
2023-04-09T01:28:50.555Z,4.75
2023-04-09T01:29:50.310Z,4.77
2023-04-09T01:30:50.353Z,4.74
2023-04-09T01:31:50.309Z,4.77
2023-04-09T01:32:50.385Z,4.80
2023-04-09T01:33:50.345Z,4.84
2023-04-09T01:34:50.386Z,4.82
2023-04-09T01:35:50.448Z,4.82
2023-04-09T01:36:50.397Z,4.78
2023-04-09T01:37:50.410Z,4.74
2023-04-09T01:38:50.621Z,4.74
2023-04-09T01:39:50.490Z,4.73
2023-04-09T01:40:50.477Z,4.70
2023-04-09T01:41:50.478Z,4.70
2023-04-09T01:42:50.498Z,4.70
2023-04-09T01:43:50.512Z,4.67
2023-04-09T01:44:50.556Z,4.63
2023-04-09T01:45:50.556Z,4.62
2023-04-09T01:46:50.574Z,4.60
2023-04-09T01:47:50.616Z,4.59
2023-04-09T01:48:50.822Z,4.60
2023-04-09T01:49:50.640Z,4.62
2023-04-09T01:50:50.652Z,4.63
2023-04-09T01:51:50.648Z,4.62
2023-04-09T01:52:50.671Z,4.66
2023-04-09T01:53:50.683Z,4.66
2023-04-09T01:54:50.745Z,4.66
2023-04-09T01:55:50.724Z,4.70
2023-04-09T01:56:50.742Z,4.70
2023-04-09T01:57:50.761Z,4.71
2023-04-09T01:58:51.059Z,4.70
2023-04-09T01:59:50.814Z,4.70
2023-04-09T02:00:50.816Z,4.70
2023-04-09T02:01:50.894Z,4.70
2023-04-09T02:02:51.027Z,4.68
2023-04-09T02:03:50.907Z,4.67
2023-04-09T02:04:50.908Z,4.66
2023-04-09T02:05:50.897Z,4.63
2023-04-09T02:06:50.917Z,4.62
2023-04-09T02:07:50.928Z,4.63
2023-04-09T02:08:51.242Z,4.60
2023-04-09T02:09:50.999Z,4.63
2023-04-09T02:10:50.985Z,4.63
2023-04-09T02:11:50.996Z,4.63
2023-04-09T02:12:51.025Z,4.60
2023-04-09T02:13:51.027Z,4.56
2023-04-09T02:14:51.079Z,4.53
2023-04-09T02:15:51.135Z,4.49
2023-04-09T02:16:51.087Z,4.49
2023-04-09T02:17:51.153Z,4.45
2023-04-09T02:18:51.324Z,4.45
2023-04-09T02:19:51.165Z,4.45
2023-04-09T02:20:51.163Z,4.44
2023-04-09T02:21:51.174Z,4.44
2023-04-09T02:22:51.201Z,4.44
2023-04-09T02:23:51.210Z,4.44
2023-04-09T02:24:51.249Z,4.41
2023-04-09T02:25:51.247Z,4.40
2023-04-09T02:26:51.261Z,4.41
2023-04-09T02:27:51.274Z,4.40
2023-04-09T02:28:51.577Z,4.41
2023-04-09T02:29:51.335Z,4.40
2023-04-09T02:30:51.340Z,4.41
2023-04-09T02:31:51.354Z,4.42
2023-04-09T02:32:51.382Z,4.41
2023-04-09T02:33:51.382Z,4.40
2023-04-09T02:34:51.430Z,4.41
2023-04-09T02:35:51.458Z,4.40
2023-04-09T02:36:51.447Z,4.40
2023-04-09T02:37:51.447Z,4.40
2023-04-09T02:38:51.880Z,4.41
2023-04-09T02:39:51.503Z,4.44
2023-04-09T02:40:51.524Z,4.48
2023-04-09T02:41:51.524Z,4.50
2023-04-09T02:42:51.540Z,4.50
2023-04-09T02:43:51.557Z,4.50
2023-04-09T02:44:51.603Z,4.49
2023-04-09T02:45:51.578Z,4.48
2023-04-09T02:46:51.636Z,4.45
2023-04-09T02:47:51.648Z,4.44
2023-04-09T02:48:51.922Z,4.44
2023-04-09T02:49:51.664Z,4.44
2023-04-09T02:50:51.666Z,4.44
2023-04-09T02:51:51.697Z,4.44
2023-04-09T02:52:51.702Z,4.44
2023-04-09T02:53:51.720Z,4.44
2023-04-09T02:54:51.754Z,4.45
2023-04-09T02:55:51.782Z,4.49
2023-04-09T02:56:51.782Z,4.48
2023-04-09T02:57:51.782Z,4.44
2023-04-09T02:58:51.976Z,4.44
2023-04-09T02:59:51.839Z,4.44
2023-04-09T03:00:51.854Z,4.45
2023-04-09T03:01:51.909Z,4.48
2023-04-09T03:02:51.979Z,4.48
2023-04-09T03:03:51.961Z,4.48
2023-04-09T03:04:51.928Z,4.44
2023-04-09T03:05:51.914Z,4.42
2023-04-09T03:06:51.939Z,4.40
2023-04-09T03:07:51.947Z,4.40
2023-04-09T03:08:52.151Z,4.40
2023-04-09T03:09:51.996Z,4.42
2023-04-09T03:10:51.990Z,4.48
2023-04-09T03:11:52.005Z,4.49
2023-04-09T03:12:52.029Z,4.52
2023-04-09T03:13:52.039Z,4.52
2023-04-09T03:14:52.082Z,4.53
2023-04-09T03:15:52.098Z,4.55
2023-04-09T03:16:52.094Z,4.56
2023-04-09T03:17:52.146Z,4.53
2023-04-09T03:18:52.411Z,4.52
2023-04-09T03:19:52.179Z,4.44
2023-04-09T03:20:52.191Z,4.41
2023-04-09T03:21:52.194Z,4.37
2023-04-09T03:22:52.222Z,4.32
2023-04-09T03:23:52.236Z,4.28
2023-04-09T03:24:52.267Z,4.24
2023-04-09T03:25:52.261Z,4.22
2023-04-09T03:26:52.285Z,4.19
2023-04-09T03:27:52.298Z,4.17
2023-04-09T03:28:52.468Z,4.17
2023-04-09T03:29:52.353Z,4.23
2023-04-09T03:30:52.393Z,4.24
2023-04-09T03:31:52.367Z,4.30
2023-04-09T03:32:52.400Z,4.32
2023-04-09T03:33:52.402Z,4.35
2023-04-09T03:34:52.447Z,4.37
2023-04-09T03:35:52.524Z,4.38
2023-04-09T03:36:52.462Z,4.34
2023-04-09T03:37:52.472Z,4.34
2023-04-09T03:38:52.812Z,4.34
2023-04-09T03:39:52.504Z,4.32
2023-04-09T03:40:52.558Z,4.31
2023-04-09T03:41:52.544Z,4.31
2023-04-09T03:42:52.577Z,4.28
2023-04-09T03:43:52.579Z,4.28
2023-04-09T03:44:52.600Z,4.24
2023-04-09T03:45:52.631Z,4.19
2023-04-09T03:46:52.923Z,4.13
2023-04-09T03:47:52.669Z,4.14
2023-04-09T03:48:52.885Z,4.14
2023-04-09T03:49:52.671Z,4.16
2023-04-09T03:50:52.705Z,4.14
2023-04-09T03:51:52.731Z,4.14
2023-04-09T03:52:52.740Z,4.17
2023-04-09T03:53:52.756Z,4.19
2023-04-09T03:54:52.781Z,4.19
2023-04-09T03:55:52.792Z,4.19
2023-04-09T03:56:52.806Z,4.17
2023-04-09T03:57:52.821Z,4.17
2023-04-09T03:58:53.074Z,4.16
2023-04-09T03:59:52.856Z,4.13
2023-04-09T04:00:52.878Z,4.06
2023-04-09T04:01:52.938Z,4.06
2023-04-09T04:02:53.203Z,4.06
2023-04-09T04:03:53.083Z,4.05
2023-04-09T04:04:52.987Z,4.04
2023-04-09T04:05:52.962Z,4.04
2023-04-09T04:06:52.978Z,4.01
2023-04-09T04:07:52.997Z,4.02
2023-04-09T04:08:53.093Z,4.01
2023-04-09T04:09:53.022Z,4.02
2023-04-09T04:10:53.038Z,4.01
2023-04-09T04:11:53.055Z,4.02
2023-04-09T04:12:53.133Z,4.02
2023-04-09T04:13:53.101Z,4.04
2023-04-09T04:14:53.116Z,4.05
2023-04-09T04:15:53.148Z,4.04
2023-04-09T04:16:53.142Z,4.02
2023-04-09T04:17:53.197Z,4.02
2023-04-09T04:18:53.373Z,4.04
2023-04-09T04:19:53.218Z,4.06
2023-04-09T04:20:53.218Z,4.10
2023-04-09T04:21:53.226Z,4.16
2023-04-09T04:22:53.255Z,4.17
2023-04-09T04:23:53.256Z,4.20
2023-04-09T04:24:53.290Z,4.23
2023-04-09T04:25:53.306Z,4.26
2023-04-09T04:26:53.312Z,4.30
2023-04-09T04:27:53.348Z,4.30
2023-04-09T04:28:53.576Z,4.30
2023-04-09T04:29:53.408Z,4.31
2023-04-09T04:30:53.381Z,4.30
2023-04-09T04:31:53.433Z,4.30
2023-04-09T04:32:53.460Z,4.28
2023-04-09T04:33:53.439Z,4.26
2023-04-09T04:34:53.471Z,4.20
2023-04-09T04:35:53.519Z,4.19
2023-04-09T04:36:53.498Z,4.16
2023-04-09T04:37:53.530Z,4.16
2023-04-09T04:38:53.816Z,4.19
2023-04-09T04:39:53.575Z,4.19
2023-04-09T04:40:53.567Z,4.22
2023-04-09T04:41:53.592Z,4.23
2023-04-09T04:42:53.602Z,4.26
2023-04-09T04:43:53.625Z,4.28
2023-04-09T04:44:53.667Z,4.30
2023-04-09T04:45:53.807Z,4.31
2023-04-09T04:46:53.684Z,4.32
2023-04-09T04:47:53.737Z,4.32
2023-04-09T04:48:53.897Z,4.34
2023-04-09T04:49:53.742Z,4.32
2023-04-09T04:50:53.742Z,4.35
2023-04-09T04:51:53.766Z,4.37
2023-04-09T04:52:53.780Z,4.40
2023-04-09T04:53:53.802Z,4.40
2023-04-09T04:54:53.831Z,4.41
2023-04-09T04:55:53.853Z,4.42
2023-04-09T04:56:53.848Z,4.41
2023-04-09T04:57:53.868Z,4.42
2023-04-09T04:58:54.178Z,4.31
2023-04-09T04:59:53.901Z,4.14
2023-04-09T05:00:53.955Z,3.98
2023-04-09T05:01:54.007Z,3.91
2023-04-09T05:02:54.077Z,3.91
2023-04-09T05:03:54.037Z,3.98
2023-04-09T05:04:53.982Z,4.06
2023-04-09T05:05:53.995Z,4.12
2023-04-09T05:06:54.017Z,4.14
2023-04-09T05:07:54.050Z,4.17
2023-04-09T05:08:54.281Z,4.19
2023-04-09T05:09:54.104Z,4.16
2023-04-09T05:10:54.071Z,4.12
2023-04-09T05:11:54.095Z,4.14
2023-04-09T05:12:54.103Z,4.16
2023-04-09T05:13:54.124Z,4.19
2023-04-09T05:14:54.154Z,4.20
2023-04-09T05:15:54.158Z,4.20
2023-04-09T05:16:54.213Z,4.20
2023-04-09T05:17:54.291Z,4.17
2023-04-09T05:18:54.710Z,4.19
2023-04-09T05:19:54.234Z,4.20
2023-04-09T05:20:54.240Z,4.20
2023-04-09T05:21:54.261Z,4.19
2023-04-09T05:22:54.275Z,4.17
2023-04-09T05:23:54.312Z,4.19
2023-04-09T05:24:54.312Z,4.20
2023-04-09T05:25:54.336Z,4.19
2023-04-09T05:26:54.345Z,4.19
2023-04-09T05:27:54.366Z,4.20
2023-04-09T05:28:54.510Z,4.22
2023-04-09T05:29:54.402Z,4.26
2023-04-09T05:30:54.435Z,4.30
2023-04-09T05:31:54.440Z,4.31
2023-04-09T05:32:54.476Z,4.31
2023-04-09T05:33:54.458Z,4.34
2023-04-09T05:34:54.475Z,4.35
2023-04-09T05:35:54.560Z,4.40
2023-04-09T05:36:54.516Z,4.42
2023-04-09T05:37:54.536Z,4.45
2023-04-09T05:38:54.951Z,4.45
2023-04-09T05:39:54.572Z,4.48
2023-04-09T05:40:54.589Z,4.48
2023-04-09T05:41:54.607Z,4.48
2023-04-09T05:42:54.629Z,4.49
2023-04-09T05:43:54.837Z,4.52
2023-04-09T05:44:54.655Z,4.56
2023-04-09T05:45:54.696Z,4.60
2023-04-09T05:46:54.685Z,4.63
2023-04-09T05:47:54.745Z,4.66
2023-04-09T05:48:54.806Z,4.67
2023-04-09T05:49:54.736Z,4.71
2023-04-09T05:50:55.848Z,4.74
2023-04-09T05:51:54.777Z,4.78
2023-04-09T05:52:54.792Z,4.82
2023-04-09T05:53:54.834Z,4.89
2023-04-09T05:54:54.827Z,4.93
2023-04-09T05:55:54.854Z,4.96
2023-04-09T05:56:54.859Z,4.96
2023-04-09T05:57:54.885Z,4.99
2023-04-09T05:58:54.925Z,4.99
2023-04-09T05:59:54.920Z,5.02
2023-04-09T06:00:54.931Z,4.99
2023-04-09T06:01:54.966Z,4.96
2023-04-09T06:02:55.033Z,4.96
2023-04-09T06:03:57.761Z,4.93
2023-04-09T06:04:55.094Z,4.90
2023-04-09T06:05:55.016Z,4.90
2023-04-09T06:06:55.033Z,4.92
2023-04-09T06:07:55.058Z,4.90
2023-04-09T06:08:55.107Z,4.96
2023-04-09T06:09:55.084Z,5.00
2023-04-09T06:10:55.103Z,5.08
2023-04-09T06:11:55.124Z,5.17
2023-04-09T06:12:55.134Z,5.25
2023-04-09T06:13:55.186Z,5.32
2023-04-09T06:14:55.164Z,5.41
2023-04-09T06:15:55.202Z,5.46
2023-04-09T06:16:55.200Z,5.56
2023-04-09T06:17:56.535Z,5.59
2023-04-09T06:18:55.257Z,5.54
2023-04-09T06:19:55.252Z,5.38
2023-04-09T06:20:55.265Z,5.32
2023-04-09T06:21:55.284Z,5.29
2023-04-09T06:22:55.304Z,5.32
2023-04-09T06:23:55.350Z,5.35
2023-04-09T06:24:55.328Z,5.46
2023-04-09T06:25:55.358Z,5.51
2023-04-09T06:26:55.364Z,5.54
2023-04-09T06:27:55.388Z,5.66
2023-04-09T06:28:55.421Z,5.79
2023-04-09T06:29:55.416Z,5.86
2023-04-09T06:30:55.535Z,5.83
2023-04-09T06:31:55.450Z,5.86
2023-04-09T06:32:55.686Z,5.86
2023-04-09T06:33:55.912Z,5.84
2023-04-09T06:34:55.493Z,5.87
2023-04-09T06:35:55.549Z,5.97
2023-04-09T06:36:55.526Z,6.04
2023-04-09T06:37:55.544Z,6.02
2023-04-09T06:38:55.584Z,6.14
2023-04-09T06:40:01.042Z,6.16
2023-04-09T06:40:55.609Z,6.20
2023-04-09T06:41:55.630Z,6.19
2023-04-09T06:42:55.637Z,6.12
2023-04-09T06:43:55.697Z,6.11
2023-04-09T06:44:55.669Z,6.16
2023-04-09T06:45:55.687Z,6.14
2023-04-09T06:46:55.852Z,6.08
2023-04-09T06:47:55.801Z,6.14
2023-04-09T06:48:55.774Z,6.26
2023-04-09T06:49:55.746Z,6.17
2023-04-09T06:50:55.755Z,6.20
2023-04-09T06:51:55.769Z,6.26
2023-04-09T06:52:55.780Z,6.27
2023-04-09T06:53:56.107Z,6.28
2023-04-09T06:54:55.821Z,6.33
2023-04-09T06:55:57.029Z,6.36
2023-04-09T06:56:55.854Z,6.31
2023-04-09T06:57:55.878Z,6.28
2023-04-09T06:58:55.916Z,6.16
2023-04-09T06:59:55.909Z,6.08
2023-04-09T07:00:55.946Z,6.01
2023-04-09T07:01:56.008Z,6.01
2023-04-09T07:02:56.242Z,5.97
2023-04-09T07:03:56.385Z,6.17
2023-04-09T07:04:56.004Z,6.36
2023-04-09T07:05:56.016Z,6.59
2023-04-09T07:06:56.029Z,6.74
2023-04-09T07:07:56.063Z,6.69
2023-04-09T07:08:56.095Z,6.66
2023-04-09T07:09:56.094Z,6.57
2023-04-09T07:10:56.104Z,6.51
2023-04-09T07:11:56.124Z,6.35
2023-04-09T07:12:56.127Z,6.24
2023-04-09T07:13:56.186Z,6.17
2023-04-09T07:14:56.167Z,6.20
2023-04-09T07:15:56.214Z,6.27
2023-04-09T07:16:56.203Z,6.30
2023-04-09T07:17:56.275Z,6.36
2023-04-09T07:18:56.259Z,6.41
2023-04-09T07:19:56.251Z,6.60
2023-04-09T07:20:56.268Z,6.77
2023-04-09T07:21:56.280Z,6.89
2023-04-09T07:22:56.304Z,6.99
2023-04-09T07:23:56.343Z,6.96
2023-04-09T07:24:56.331Z,6.82
2023-04-09T07:25:56.343Z,6.81
2023-04-09T07:26:56.372Z,6.95
2023-04-09T07:27:56.384Z,7.07
2023-04-09T07:28:56.436Z,7.15
2023-04-09T07:29:56.418Z,7.23
2023-04-09T07:30:56.433Z,7.28
2023-04-09T07:31:56.494Z,7.23
2023-04-09T07:32:56.543Z,7.24
2023-04-09T07:33:56.514Z,7.29
2023-04-09T07:34:56.506Z,7.38
2023-04-09T07:35:56.588Z,7.31
2023-04-09T07:36:56.546Z,7.21
2023-04-09T07:37:56.558Z,7.07
2023-04-09T07:38:56.605Z,7.03
2023-04-09T07:39:56.585Z,7.06
2023-04-09T07:40:56.612Z,7.15
2023-04-09T07:41:56.615Z,7.25
2023-04-09T07:42:56.640Z,7.31
2023-04-09T07:43:56.682Z,7.24
2023-04-09T07:44:56.695Z,7.28
2023-04-09T07:45:56.689Z,7.35
2023-04-09T07:46:56.780Z,7.38
2023-04-09T07:47:56.748Z,7.40
2023-04-09T07:48:56.775Z,7.51
2023-04-09T07:49:56.765Z,7.57
2023-04-09T07:50:56.806Z,7.51
2023-04-09T07:51:56.802Z,7.50
2023-04-09T07:52:56.823Z,7.42
2023-04-09T07:53:56.872Z,7.50
2023-04-09T07:54:57.805Z,7.60
2023-04-09T07:55:56.882Z,7.58
2023-04-09T07:56:56.905Z,7.57
2023-04-09T07:57:56.917Z,7.70
2023-04-09T07:58:56.972Z,7.90
2023-04-09T07:59:56.967Z,8.09
2023-04-09T08:00:56.962Z,8.24
2023-04-09T08:01:57.035Z,8.31
2023-04-09T08:02:57.130Z,8.44
2023-04-09T08:03:57.282Z,8.56
2023-04-09T08:04:57.127Z,8.58
2023-04-09T08:05:57.048Z,8.56
2023-04-09T08:06:57.069Z,8.63
2023-04-09T08:07:57.083Z,8.61
2023-04-09T08:08:57.126Z,8.55
2023-04-09T08:09:57.115Z,8.26
2023-04-09T08:10:57.135Z,7.97
2023-04-09T08:11:57.150Z,7.97
2023-04-09T08:12:57.175Z,8.03
2023-04-09T08:13:57.219Z,8.20
2023-04-09T08:14:57.214Z,8.20
2023-04-09T08:15:57.308Z,8.36
2023-04-09T08:16:57.259Z,8.37
2023-04-09T08:17:57.282Z,8.36
2023-04-09T08:18:57.324Z,8.37
2023-04-09T08:19:57.288Z,8.52
2023-04-09T08:20:57.319Z,8.56
2023-04-09T08:21:57.325Z,8.63
2023-04-09T08:22:57.340Z,8.45
2023-04-09T08:23:57.381Z,8.30
2023-04-09T08:24:57.382Z,8.41
2023-04-09T08:25:57.389Z,8.23
2023-04-09T08:26:57.412Z,8.00
2023-04-09T08:27:57.433Z,8.01
2023-04-09T08:28:57.482Z,8.13
2023-04-09T08:29:57.472Z,8.16
2023-04-09T08:30:57.486Z,8.19
2023-04-09T08:31:57.512Z,8.34
2023-04-09T08:32:57.534Z,8.49
2023-04-09T08:33:57.576Z,8.66
2023-04-09T08:34:57.616Z,8.76
2023-04-09T08:35:57.590Z,8.81
2023-04-09T08:36:57.588Z,8.82
2023-04-09T08:37:57.634Z,8.85
2023-04-09T08:38:57.640Z,8.87
2023-04-09T08:39:57.630Z,8.85
2023-04-09T08:40:57.651Z,8.69
2023-04-09T08:41:57.666Z,8.61
2023-04-09T08:42:57.688Z,8.52
2023-04-09T08:43:59.290Z,8.42
2023-04-09T08:44:57.726Z,8.19
2023-04-09T08:45:57.751Z,8.20
2023-04-09T08:46:59.643Z,8.31
2023-04-09T08:47:57.836Z,8.52
2023-04-09T08:48:57.826Z,8.56
2023-04-09T08:49:57.813Z,8.63
2023-04-09T08:50:57.829Z,8.64
2023-04-09T08:51:57.846Z,8.73
2023-04-09T08:52:57.855Z,8.76
2023-04-09T08:53:57.895Z,8.74
2023-04-09T08:54:57.992Z,8.63
2023-04-09T08:55:57.905Z,8.49
2023-04-09T08:56:57.927Z,8.52
2023-04-09T08:57:57.934Z,8.64
2023-04-09T08:58:57.986Z,8.79
2023-04-09T08:59:57.966Z,8.87
2023-04-09T09:00:58.044Z,9.03
2023-04-09T09:01:58.101Z,9.13
2023-04-09T09:02:58.190Z,9.10
2023-04-09T09:03:58.341Z,9.23
2023-04-09T09:04:58.057Z,9.36
2023-04-09T09:05:58.060Z,9.34
2023-04-09T09:06:58.091Z,9.43
2023-04-09T09:07:58.105Z,9.47
2023-04-09T09:08:58.143Z,9.48
2023-04-09T09:09:58.129Z,9.43
2023-04-09T09:10:58.149Z,9.40
2023-04-09T09:11:58.164Z,9.28
2023-04-09T09:12:58.186Z,9.22
2023-04-09T09:13:58.268Z,9.18
2023-04-09T09:14:58.216Z,9.13
2023-04-09T09:15:58.267Z,9.19
2023-04-09T09:16:58.372Z,9.25
2023-04-09T09:17:58.290Z,9.25
2023-04-09T09:18:58.455Z,9.16
2023-04-09T09:19:58.291Z,9.19
2023-04-09T09:20:58.312Z,9.29
2023-04-09T09:21:58.333Z,9.39
2023-04-09T09:22:58.358Z,9.41
2023-04-09T09:23:58.374Z,9.47
2023-04-09T09:24:58.381Z,9.41
2023-04-09T09:25:58.391Z,9.44
2023-04-09T09:26:58.414Z,9.43
2023-04-09T09:27:58.433Z,9.48
2023-04-09T09:28:58.481Z,9.59
2023-04-09T09:29:58.456Z,9.65
2023-04-09T09:30:58.552Z,9.77
2023-04-09T09:31:58.484Z,9.91
2023-04-09T09:32:58.534Z,9.98
2023-04-09T09:33:58.543Z,10.07
2023-04-09T09:34:58.539Z,10.17
2023-04-09T09:35:58.625Z,10.15
2023-04-09T09:36:58.568Z,10.12
2023-04-09T09:37:58.579Z,10.04
2023-04-09T09:38:58.631Z,9.95
2023-04-09T09:39:58.606Z,10.04
2023-04-09T09:40:58.626Z,10.12
2023-04-09T09:41:58.637Z,10.28
2023-04-09T09:42:58.650Z,10.22
2023-04-09T09:43:58.696Z,10.22
2023-04-09T09:44:58.685Z,10.30
2023-04-09T09:45:58.719Z,10.35
2023-04-09T09:46:58.760Z,10.40
2023-04-09T09:47:58.779Z,10.51
2023-04-09T09:48:58.776Z,10.75
2023-04-09T09:49:58.748Z,10.84
2023-04-09T09:50:58.772Z,10.48
2023-04-09T09:51:58.779Z,10.26
2023-04-09T09:52:58.803Z,10.31
2023-04-09T09:53:58.866Z,9.98
2023-04-09T09:54:58.838Z,9.94
2023-04-09T09:55:58.840Z,9.99
2023-04-09T09:56:58.858Z,9.91
2023-04-09T09:57:58.868Z,9.74
2023-04-09T09:58:58.910Z,9.69
2023-04-09T09:59:58.902Z,9.77
2023-04-09T10:00:59.004Z,9.89
2023-04-09T10:01:59.158Z,10.16
2023-04-09T10:02:59.163Z,10.31
2023-04-09T10:03:58.996Z,10.22
2023-04-09T10:04:58.983Z,10.15
2023-04-09T10:05:59.001Z,9.98
2023-04-09T10:06:59.013Z,10.12
2023-04-09T10:07:59.028Z,10.20
2023-04-09T10:08:59.085Z,10.17
2023-04-09T10:09:59.048Z,10.37
2023-04-09T10:10:59.081Z,10.69
2023-04-09T10:11:59.090Z,10.90
2023-04-09T10:12:59.115Z,11.15
2023-04-09T10:13:59.142Z,11.36
2023-04-09T10:14:59.157Z,11.05
2023-04-09T10:15:59.225Z,10.97
2023-04-09T10:16:59.177Z,11.08
2023-04-09T10:17:59.226Z,11.26
2023-04-09T10:18:59.224Z,11.30
2023-04-09T10:19:59.210Z,11.30
2023-04-09T10:20:59.232Z,11.29
2023-04-09T10:21:59.253Z,10.90
2023-04-09T10:22:59.254Z,10.90
2023-04-09T10:23:59.284Z,11.02
2023-04-09T10:24:59.288Z,11.02
2023-04-09T10:25:59.300Z,10.94
2023-04-09T10:26:59.316Z,11.19
2023-04-09T10:27:59.328Z,11.50
2023-04-09T10:28:59.367Z,11.43
2023-04-09T10:29:59.351Z,11.51
2023-04-09T10:30:59.480Z,11.75
2023-04-09T10:31:59.381Z,11.68
2023-04-09T10:32:59.424Z,11.25
2023-04-09T10:33:59.426Z,11.08
2023-04-09T10:34:59.511Z,10.89
2023-04-09T10:35:59.477Z,11.07
2023-04-09T10:36:59.461Z,11.22
2023-04-09T10:37:59.471Z,11.05
2023-04-09T10:38:59.514Z,10.97
2023-04-09T10:39:59.504Z,10.82
2023-04-09T10:40:59.535Z,10.16
2023-04-09T10:41:59.573Z,9.89
2023-04-09T10:42:59.560Z,10.17
2023-04-09T10:43:59.605Z,10.53
2023-04-09T10:44:59.596Z,10.63
2023-04-09T10:45:59.675Z,10.54
2023-04-09T10:46:59.874Z,10.49
2023-04-09T10:47:59.678Z,10.51
2023-04-09T10:48:59.682Z,10.51
2023-04-09T10:49:59.668Z,10.28
2023-04-09T10:50:59.678Z,10.09
2023-04-09T10:51:59.692Z,10.19
2023-04-09T10:52:59.717Z,10.42
2023-04-09T10:53:59.744Z,10.74
2023-04-09T10:54:59.742Z,10.87
2023-04-09T10:55:59.750Z,11.00
2023-04-09T10:56:59.770Z,11.12
2023-04-09T10:57:59.776Z,11.36
2023-04-09T10:58:59.823Z,11.59
2023-04-09T10:59:59.804Z,11.45
2023-04-09T11:00:59.818Z,11.19
2023-04-09T11:01:59.990Z,11.12
2023-04-09T11:03:00.039Z,11.00
2023-04-09T11:03:59.898Z,10.89
2023-04-09T11:04:59.950Z,10.93
2023-04-09T11:05:59.896Z,11.10
2023-04-09T11:06:59.919Z,11.12
2023-04-09T11:07:59.925Z,11.10
2023-04-09T11:08:59.976Z,11.10
2023-04-09T11:09:59.956Z,11.07
2023-04-09T11:10:59.973Z,11.22
2023-04-09T11:11:59.982Z,11.44
2023-04-09T11:12:59.997Z,11.45
2023-04-09T11:14:00.058Z,11.37
2023-04-09T11:15:00.023Z,11.25
2023-04-09T11:16:00.138Z,11.22
2023-04-09T11:17:00.052Z,10.92
2023-04-09T11:18:00.185Z,10.86
2023-04-09T11:19:00.145Z,10.81
2023-04-09T11:20:00.115Z,10.81
2023-04-09T11:21:00.166Z,10.97
2023-04-09T11:22:00.133Z,11.22
2023-04-09T11:23:00.168Z,11.44
2023-04-09T11:24:00.178Z,11.17
2023-04-09T11:25:00.175Z,11.11
2023-04-09T11:26:00.189Z,10.94
2023-04-09T11:27:00.199Z,10.74
2023-04-09T11:28:00.212Z,10.82
2023-04-09T11:29:00.250Z,11.05
2023-04-09T11:30:00.260Z,11.22
2023-04-09T11:31:00.259Z,11.15
2023-04-09T11:33:00.323Z,11.07
2023-04-09T11:34:00.321Z,11.17
2023-04-09T11:35:00.322Z,10.96
2023-04-09T11:36:00.396Z,10.76
2023-04-09T11:37:00.344Z,10.69
2023-04-09T11:38:00.360Z,10.63
2023-04-09T11:39:00.408Z,10.49
2023-04-09T11:40:00.396Z,10.51
2023-04-09T11:41:00.402Z,10.48
2023-04-09T11:42:00.410Z,10.60
2023-04-09T11:43:00.423Z,10.71
2023-04-09T11:44:00.461Z,10.71
2023-04-09T11:45:00.446Z,10.76
2023-04-09T11:46:00.465Z,10.89
2023-04-09T11:47:00.558Z,11.05
2023-04-09T11:48:00.565Z,11.26
2023-04-09T11:49:00.526Z,11.43
2023-04-09T11:50:00.534Z,11.50
2023-04-09T11:51:00.544Z,11.59
2023-04-09T11:52:00.562Z,11.73
2023-04-09T11:53:00.562Z,11.75
2023-04-09T11:54:00.600Z,11.66
2023-04-09T11:55:00.595Z,11.70
2023-04-09T11:56:00.658Z,11.70
2023-04-09T11:57:00.624Z,11.73
2023-04-09T11:58:00.654Z,11.75
2023-04-09T11:59:00.694Z,11.95
2023-04-09T12:00:02.586Z,11.95
2023-04-09T12:01:00.693Z,12.18
2023-04-09T12:02:00.830Z,12.40
2023-04-09T12:03:00.931Z,12.55
2023-04-09T12:04:01.096Z,12.54
2023-04-09T12:05:00.788Z,12.54
2023-04-09T12:06:00.796Z,12.73
2023-04-09T12:07:00.787Z,12.75
2023-04-09T12:08:00.819Z,12.80
2023-04-09T12:09:00.849Z,12.67
2023-04-09T12:10:00.855Z,12.37
2023-04-09T12:11:00.855Z,12.32
2023-04-09T12:12:00.871Z,12.09
2023-04-09T12:13:00.882Z,12.29
2023-04-09T12:14:00.941Z,12.50
2023-04-09T12:15:00.908Z,12.73
2023-04-09T12:16:00.933Z,12.98
2023-04-09T12:17:00.956Z,13.27
2023-04-09T12:18:01.005Z,13.39
2023-04-09T12:19:01.009Z,13.47
2023-04-09T12:20:00.995Z,13.46
2023-04-09T12:21:01.003Z,13.37
2023-04-09T12:22:01.020Z,12.95
2023-04-09T12:23:01.032Z,12.50
2023-04-09T12:24:01.083Z,12.43
2023-04-09T12:25:01.064Z,12.35
2023-04-09T12:26:01.087Z,12.36
2023-04-09T12:27:01.099Z,12.31
2023-04-09T12:28:01.115Z,12.13
2023-04-09T12:29:01.159Z,11.75
2023-04-09T12:30:01.156Z,11.60
2023-04-09T12:31:01.156Z,11.51
2023-04-09T12:32:01.225Z,11.45
2023-04-09T12:33:01.238Z,11.45
2023-04-09T12:34:01.234Z,11.27
2023-04-09T12:35:01.203Z,11.12
2023-04-09T12:36:01.297Z,11.25
2023-04-09T12:37:01.225Z,11.33
2023-04-09T12:38:01.241Z,11.35
2023-04-09T12:39:01.280Z,11.48
2023-04-09T12:40:01.271Z,11.55
2023-04-09T12:41:01.420Z,11.47
2023-04-09T12:42:01.303Z,11.17
2023-04-09T12:43:01.323Z,10.97
2023-04-09T12:44:01.359Z,11.02
2023-04-09T12:45:01.353Z,11.12
2023-04-09T12:46:01.383Z,11.18
2023-04-09T12:47:01.384Z,11.23
2023-04-09T12:48:01.550Z,11.35
2023-04-09T12:49:01.496Z,11.47
2023-04-09T12:50:01.425Z,11.50
2023-04-09T12:51:01.437Z,11.40
2023-04-09T12:52:01.457Z,11.41
2023-04-09T12:53:01.474Z,11.55
2023-04-09T12:54:01.523Z,11.62
2023-04-09T12:55:01.492Z,11.47
2023-04-09T12:56:01.527Z,11.41
2023-04-09T12:57:01.545Z,11.47
2023-04-09T12:58:01.543Z,11.44
2023-04-09T12:59:01.610Z,11.29
2023-04-09T13:00:01.584Z,11.18
2023-04-09T13:01:01.612Z,11.22
2023-04-09T13:02:01.780Z,11.41
2023-04-09T13:03:01.895Z,11.62
2023-04-09T13:04:01.729Z,11.77
2023-04-09T13:05:01.685Z,11.87
2023-04-09T13:06:01.680Z,11.95
2023-04-09T13:07:01.679Z,12.04
2023-04-09T13:08:01.689Z,12.09
2023-04-09T13:09:01.727Z,12.03
2023-04-09T13:10:01.747Z,11.87
2023-04-09T13:11:01.785Z,11.94
2023-04-09T13:12:01.758Z,12.04
2023-04-09T13:13:01.762Z,12.25